NOAA Web Site Link Tides and Currents Home Page Transparent placeholder image

PORTS® Data Listing: 9414523 Redwood City, CA

CO-OPS RAW PORTS DATA

************************      PRELIMINARY DATA      ************************** 

     THIS RAW DATA HAS NOT BEEN SUBJECT TO THE NATIONAL OCEAN SERVICE'S        
     QUALITY CONTROL OR QUALITY ASSURANCE PROCEDURES AND DOES NOT MEET         
     THE CRITERIA AND STANDARDS OF OFFICIAL NATIONAL OCEAN SERVICE             
     DATA.  IT IS RELEASED FOR LIMITED PUBLIC USE AS PRELIMINARY DATA TO       
     BE USED ONLY WITH APPROPRIATE CAUTION.                                    

************************      PRELIMINARY DATA      ************************** 


       CD   -   Calendar date
       T    -   Time
       TZ   -   Timezone
       PW   -   Predicted water level (feet above MLLW)
       OW   -   Observed water level (feet above MLLW)
       WS   -   Wind speed (knots)
       WD   -   Wind direction (degrees true)
       WG   -   Wind gust (knots)
       AT   -   Air temperature (degrees farenheit)
       WT   -   Water temperature (degrees farenheit)
       AP   -   Air pressure (millibars)
       SA   -   Salinty (PSU - Practical Salinity Units)
       SG   -   Specific gravity
       RH   -   Relative humidity
       AG   -   Air gap (feet)
       VI   -   Visibility (nautical miles)

       ** NOTE **
       A variable that has its data fields filled with "9"s, indicates that
       data was not collected for that sample period.
       **********


STATION NAME: Redwood City (9414523)
****************************************************************************************************
    CD       T    TZ    PW     OW    WS   WD   WG    AT    WT    AP    SA    SG     RH    AG   VI
****************************************************************************************************
2019/06/23 21:12 PDT    5.14   5.76    8  334    9  65.5  75.0 1013.8 -9.9 -9.999 -99.9 -99.99 -9.99
2019/06/23 21:18 PDT    5.04   5.66    7  327    8  65.7  75.0 1013.9 -9.9 -9.999 -99.9 -99.99 -9.99
2019/06/23 21:24 PDT    4.94   5.56    7  333    9  65.5  75.0 1013.9 -9.9 -9.999 -99.9 -99.99 -9.99
2019/06/23 21:30 PDT    4.84   5.47    7  337    8  65.3  75.0 1013.9 -9.9 -9.999 -99.9 -99.99 -9.99
2019/06/23 21:36 PDT    4.74   5.38    6  341    7  65.3  75.0 1013.9 -9.9 -9.999 -99.9 -99.99 -9.99
2019/06/23 21:42 PDT    4.64   5.28    7  342    7  65.5  75.0 1013.9 -9.9 -9.999 -99.9 -99.99 -9.99
2019/06/23 21:48 PDT    4.55   5.17    6  341    7  65.1  75.0 1013.9 -9.9 -9.999 -99.9 -99.99 -9.99
2019/06/23 21:54 PDT    4.45   5.06    6  338    7  64.9  75.0 1013.9 -9.9 -9.999 -99.9 -99.99 -9.99
2019/06/23 22:00 PDT    4.36   4.95    6  337    7  64.8  75.0 1014.0 -9.9 -9.999 -99.9 -99.99 -9.99
2019/06/23 22:06 PDT    4.28   4.85    6  340    7  64.6  75.0 1014.1 -9.9 -9.999 -99.9 -99.99 -9.99
2019/06/23 22:12 PDT    4.19   4.75    5  339    7  64.6  75.0 1014.1 -9.9 -9.999 -99.9 -99.99 -9.99
2019/06/23 22:18 PDT    4.11   4.66    6  343    7  64.6  75.0 1014.1 -9.9 -9.999 -99.9 -99.99 -9.99
2019/06/23 22:24 PDT    4.03   4.58    6  343    8  64.2  75.0 1014.1 -9.9 -9.999 -99.9 -99.99 -9.99
2019/06/23 22:30 PDT    3.95   4.51    6  339    7  64.0  75.0 1014.1 -9.9 -9.999 -99.9 -99.99 -9.99
2019/06/23 22:36 PDT    3.87   4.45    6  336    7  64.0  75.0 1014.1 -9.9 -9.999 -99.9 -99.99 -9.99
2019/06/23 22:42 PDT    3.80   4.36    6  336    7  63.7  75.0 1014.1 -9.9 -9.999 -99.9 -99.99 -9.99
2019/06/23 22:48 PDT    3.74   4.30    6  342    7  63.9  75.0 1014.0 -9.9 -9.999 -99.9 -99.99 -9.99
2019/06/23 22:54 PDT    3.67   4.25    7  330    8  63.3  75.0 1014.1 -9.9 -9.999 -99.9 -99.99 -9.99
2019/06/23 23:00 PDT    3.61   4.18    8  329   10  62.8  75.0 1014.0 -9.9 -9.999 -99.9 -99.99 -9.99
2019/06/23 23:06 PDT    3.56   4.13    6  329    9  62.8  75.0 1013.9 -9.9 -9.999 -99.9 -99.99 -9.99
2019/06/23 23:12 PDT    3.50   4.08    5  322    7  62.8  75.0 1013.8 -9.9 -9.999 -99.9 -99.99 -9.99
2019/06/23 23:18 PDT    3.46   4.04    7  323    8  62.6  75.0 1013.8 -9.9 -9.999 -99.9 -99.99 -9.99
2019/06/23 23:24 PDT    3.41   4.00    7  322    9  62.2  75.0 1013.8 -9.9 -9.999 -99.9 -99.99 -9.99
2019/06/23 23:30 PDT    3.37   3.95    7  324    9  61.9  75.0 1013.8 -9.9 -9.999 -99.9 -99.99 -9.99
2019/06/23 23:36 PDT    3.34   3.92    7  324    9  61.5  75.0 1013.7 -9.9 -9.999 -99.9 -99.99 -9.99
2019/06/23 23:42 PDT    3.31   3.90    6  325    9  61.9  75.0 1013.8 -9.9 -9.999 -99.9 -99.99 -9.99
2019/06/23 23:48 PDT    3.29   3.89    6  326    7  62.1  75.0 1013.7 -9.9 -9.999 -99.9 -99.99 -9.99
2019/06/23 23:54 PDT    3.27   3.87    6  323    8  62.1  74.8 1013.7 -9.9 -9.999 -99.9 -99.99 -9.99
2019/06/24 00:00 PDT    3.26   3.86    5  335    7  61.9  75.0 1013.6 -9.9 -9.999 -99.9 -99.99 -9.99
2019/06/24 00:06 PDT    3.25   3.85    4  336    5  61.9  74.8 1013.6 -9.9 -9.999 -99.9 -99.99 -9.99
2019/06/24 00:12 PDT    3.25   3.84    3  324    5  61.7  74.8 1013.6 -9.9 -9.999 -99.9 -99.99 -9.99
2019/06/24 00:18 PDT    3.25   3.85    4  313    5  61.7  74.8 1013.5 -9.9 -9.999 -99.9 -99.99 -9.99
2019/06/24 00:24 PDT    3.26   3.85    5  312    5  61.2  74.8 1013.5 -9.9 -9.999 -99.9 -99.99 -9.99
2019/06/24 00:30 PDT    3.28   3.86    4  308    5  61.2  74.8 1013.4 -9.9 -9.999 -99.9 -99.99 -9.99
2019/06/24 00:36 PDT    3.30   3.89    3  316    4  61.3  74.8 1013.4 -9.9 -9.999 -99.9 -99.99 -9.99
2019/06/24 00:42 PDT    3.33   3.90    2  332    3  61.5  74.8 1013.3 -9.9 -9.999 -99.9 -99.99 -9.99
2019/06/24 00:48 PDT    3.36   3.94    2  355    3  61.7  74.8 1013.3 -9.9 -9.999 -99.9 -99.99 -9.99
2019/06/24 00:54 PDT    3.40   3.97    2   23    3  61.5  74.8 1013.2 -9.9 -9.999 -99.9 -99.99 -9.99
2019/06/24 01:00 PDT    3.44   4.01    2   22    3  61.7  74.8 1013.1 -9.9 -9.999 -99.9 -99.99 -9.99
2019/06/24 01:06 PDT    3.49   4.07    1   28    2  61.9  74.8 1013.0 -9.9 -9.999 -99.9 -99.99 -9.99
2019/06/24 01:12 PDT    3.55   4.13    1    7    2  62.2  74.8 1013.1 -9.9 -9.999 -99.9 -99.99 -9.99
2019/06/24 01:18 PDT    3.61   4.18    2  321    3  62.1  74.8 1013.0 -9.9 -9.999 -99.9 -99.99 -9.99
2019/06/24 01:24 PDT    3.67   4.23    1  314    2  61.9  74.8 1013.0 -9.9 -9.999 -99.9 -99.99 -9.99
2019/06/24 01:30 PDT    3.74   4.31    1  336    1  61.7  74.8 1012.9 -9.9 -9.999 -99.9 -99.99 -9.99
2019/06/24 01:36 PDT    3.81   4.36    1  301    2  61.9  74.8 1012.9 -9.9 -9.999 -99.9 -99.99 -9.99
2019/06/24 01:42 PDT    3.89   4.43    1  308    2  62.1  74.8 1012.9 -9.9 -9.999 -99.9 -99.99 -9.99
2019/06/24 01:48 PDT    3.97   4.48    2  298    3  62.1  74.8 1012.9 -9.9 -9.999 -99.9 -99.99 -9.99
2019/06/24 01:54 PDT    4.05   4.53    3  303    3  62.2  74.8 1012.8 -9.9 -9.999 -99.9 -99.99 -9.99
2019/06/24 02:00 PDT    4.14   4.60    3  304    4  62.4  74.8 1012.8 -9.9 -9.999 -99.9 -99.99 -9.99
2019/06/24 02:06 PDT    4.22   4.68    4  304    4  62.2  74.8 1012.8 -9.9 -9.999 -99.9 -99.99 -9.99
2019/06/24 02:12 PDT    4.31   4.76    4  304    5  61.7  74.8 1012.7 -9.9 -9.999 -99.9 -99.99 -9.99
2019/06/24 02:18 PDT    4.40   4.85    4  303    4  61.5  74.8 1012.7 -9.9 -9.999 -99.9 -99.99 -9.99
2019/06/24 02:24 PDT    4.49   4.93    4  291    5  61.2  74.8 1012.7 -9.9 -9.999 -99.9 -99.99 -9.99
2019/06/24 02:30 PDT    4.58   5.02    4  298    5  61.2  74.8 1012.7 -9.9 -9.999 -99.9 -99.99 -9.99
2019/06/24 02:36 PDT    4.67   5.12    5  303    6  61.0  74.7 1012.6 -9.9 -9.999 -99.9 -99.99 -9.99
2019/06/24 02:42 PDT    4.76   5.20    5  300    6  61.0  74.7 1012.6 -9.9 -9.999 -99.9 -99.99 -9.99
2019/06/24 02:48 PDT    4.85   5.29    4  298    5  60.6  74.7 1012.6 -9.9 -9.999 -99.9 -99.99 -9.99
2019/06/24 02:54 PDT    4.94   5.37    4  297    5  60.4  74.7 1012.6 -9.9 -9.999 -99.9 -99.99 -9.99
2019/06/24 03:00 PDT    5.02   5.44    4  292    4  60.4  74.7 1012.5 -9.9 -9.999 -99.9 -99.99 -9.99
2019/06/24 03:06 PDT    5.11   5.50    4  299    4  60.3  74.7 1012.5 -9.9 -9.999 -99.9 -99.99 -9.99
2019/06/24 03:12 PDT    5.19   5.57    4  305    4  60.4  74.7 1012.6 -9.9 -9.999 -99.9 -99.99 -9.99
2019/06/24 03:18 PDT    5.28   5.64    4  307    5  59.7  74.7 1012.5 -9.9 -9.999 -99.9 -99.99 -9.99
2019/06/24 03:24 PDT    5.36   5.70    4  300    4  59.7  74.7 1012.5 -9.9 -9.999 -99.9 -99.99 -9.99
2019/06/24 03:30 PDT    5.43   5.76    3  301    4  59.9  74.7 1012.5 -9.9 -9.999 -99.9 -99.99 -9.99
2019/06/24 03:36 PDT    5.51   5.82    4  301    4  59.7  74.7 1012.4 -9.9 -9.999 -99.9 -99.99 -9.99
2019/06/24 03:42 PDT    5.58   5.88    3  293    4  59.9  74.7 1012.4 -9.9 -9.999 -99.9 -99.99 -9.99
2019/06/24 03:48 PDT    5.65   5.94    3  296    4  60.1  74.7 1012.4 -9.9 -9.999 -99.9 -99.99 -9.99
2019/06/24 03:54 PDT    5.72   5.99    4  304    4  60.3  74.7 1012.3 -9.9 -9.999 -99.9 -99.99 -9.99
2019/06/24 04:00 PDT    5.78   6.06    4  307    4  59.9  74.7 1012.3 -9.9 -9.999 -99.9 -99.99 -9.99
2019/06/24 04:06 PDT    5.84   6.12    4  304    4  59.9  74.7 1012.3 -9.9 -9.999 -99.9 -99.99 -9.99
2019/06/24 04:12 PDT    5.90   6.19    4  306    5  59.9  74.7 1012.3 -9.9 -9.999 -99.9 -99.99 -9.99
2019/06/24 04:18 PDT    5.95   6.26    4  299    5  59.9  74.7 1012.3 -9.9 -9.999 -99.9 -99.99 -9.99
2019/06/24 04:24 PDT    6.00   6.33    3  292    4  60.1  74.7 1012.3 -9.9 -9.999 -99.9 -99.99 -9.99
2019/06/24 04:30 PDT    6.05   6.39    4  280    4  60.1  74.7 1012.4 -9.9 -9.999 -99.9 -99.99 -9.99
2019/06/24 04:36 PDT    6.09   6.44    3  275    4  59.9  74.7 1012.3 -9.9 -9.999 -99.9 -99.99 -9.99
2019/06/24 04:42 PDT    6.13   6.48    3  287    4  60.1  74.7 1012.3 -9.9 -9.999 -99.9 -99.99 -9.99
2019/06/24 04:48 PDT    6.16   6.52    2  292    3  60.1  74.7 1012.4 -9.9 -9.999 -99.9 -99.99 -9.99
2019/06/24 04:54 PDT    6.19   6.55    3  305    4  60.3  74.7 1012.4 -9.9 -9.999 -99.9 -99.99 -9.99
2019/06/24 05:00 PDT    6.22   6.57    4  308    4  60.4  74.7 1012.4 -9.9 -9.999 -99.9 -99.99 -9.99
2019/06/24 05:06 PDT    6.24   6.58    4  305    5  60.3  74.7 1012.4 -9.9 -9.999 -99.9 -99.99 -9.99
2019/06/24 05:12 PDT    6.26   6.59    5  301    6  59.9  74.7 1012.3 -9.9 -9.999 -99.9 -99.99 -9.99
2019/06/24 05:18 PDT    6.27   6.59    4  298    5  60.1  74.7 1012.3 -9.9 -9.999 -99.9 -99.99 -9.99
2019/06/24 05:24 PDT    6.28   6.59    4  297    5  59.9  74.7 1012.3 -9.9 -9.999 -99.9 -99.99 -9.99
2019/06/24 05:30 PDT    6.28   6.59    4  298    5  59.5  74.7 1012.3 -9.9 -9.999 -99.9 -99.99 -9.99
2019/06/24 05:36 PDT    6.28   6.59    3  286    4  59.7  74.7 1012.3 -9.9 -9.999 -99.9 -99.99 -9.99
2019/06/24 05:42 PDT    6.27   6.58    3  292    3  60.1  74.7 1012.4 -9.9 -9.999 -99.9 -99.99 -9.99
2019/06/24 05:48 PDT    6.26   6.57    2  294    3  60.3  74.7 1012.4 -9.9 -9.999 -99.9 -99.99 -9.99
2019/06/24 05:54 PDT    6.24   6.55    3  297    4  60.1  74.7 1012.4 -9.9 -9.999 -99.9 -99.99 -9.99
2019/06/24 06:00 PDT    6.22   6.52    4  297    4  60.1  74.7 1012.4 -9.9 -9.999 -99.9 -99.99 -9.99
2019/06/24 06:06 PDT    6.19   6.50    1  300    4  60.3  74.7 1012.4 -9.9 -9.999 -99.9 -99.99 -9.99
2019/06/24 06:12 PDT    6.16   6.47    2   25    2  60.6  74.7 1012.5 -9.9 -9.999 -99.9 -99.99 -9.99
2019/06/24 06:18 PDT    6.12   6.45    1   15    2  60.8  74.7 1012.5 -9.9 -9.999 -99.9 -99.99 -9.99
2019/06/24 06:24 PDT    6.08   6.41    1  275    3  60.8  74.7 1012.5 -9.9 -9.999 -99.9 -99.99 -9.99
2019/06/24 06:30 PDT    6.03   6.37    2  231    3  60.4  74.7 1012.5 -9.9 -9.999 -99.9 -99.99 -9.99
2019/06/24 06:36 PDT    5.97   6.32    1  212    2  60.3  74.7 1012.5 -9.9 -9.999 -99.9 -99.99 -9.99
2019/06/24 06:42 PDT    5.92   6.27    1  156    2  60.3  74.7 1012.5 -9.9 -9.999 -99.9 -99.99 -9.99
2019/06/24 06:48 PDT    5.85   6.20    1  167    2  60.4  74.7 1012.5 -9.9 -9.999 -99.9 -99.99 -9.99
2019/06/24 06:54 PDT    5.78   6.13    1  180    2  60.8  74.7 1012.6 -9.9 -9.999 -99.9 -99.99 -9.99
2019/06/24 07:00 PDT    5.70   6.05    1   41    3  60.8  74.7 1012.6 -9.9 -9.999 -99.9 -99.99 -9.99
2019/06/24 07:06 PDT    5.62   5.97    2  314    3  60.6  74.7 1012.7 -9.9 -9.999 -99.9 -99.99 -9.99
2019/06/24 07:12 PDT    5.54   5.89    1  302    3  60.8  74.7 1012.7 -9.9 -9.999 -99.9 -99.99 -9.99
2019/06/24 07:18 PDT    5.45   5.80    0  307    2  60.6  74.7 1012.8 -9.9 -9.999 -99.9 -99.99 -9.99
2019/06/24 07:24 PDT    5.35   5.73    1  340    2  60.8  74.7 1012.7 -9.9 -9.999 -99.9 -99.99 -9.99
2019/06/24 07:30 PDT    5.25   5.64    1  260    2  61.2  74.7 1012.8 -9.9 -9.999 -99.9 -99.99 -9.99
2019/06/24 07:36 PDT    5.15   5.55    1  262    3  61.0  74.7 1012.8 -9.9 -9.999 -99.9 -99.99 -9.99
2019/06/24 07:42 PDT    5.04   5.46    2  225    4  61.0  74.7 1012.8 -9.9 -9.999 -99.9 -99.99 -9.99
2019/06/24 07:48 PDT    4.93   5.37    2  221    4  61.2  74.5 1012.8 -9.9 -9.999 -99.9 -99.99 -9.99
2019/06/24 07:54 PDT    4.81   5.28    3  197    6  61.5  74.7 1012.7 -9.9 -9.999 -99.9 -99.99 -9.99
2019/06/24 08:00 PDT    4.70   5.17    2  145    3  61.5  74.7 1012.7 -9.9 -9.999 -99.9 -99.99 -9.99
2019/06/24 08:06 PDT    4.58   5.06    1  262    2  62.2  74.5 1012.8 -9.9 -9.999 -99.9 -99.99 -9.99
2019/06/24 08:12 PDT    4.45   4.94    1  218    2  62.4  74.5 1012.9 -9.9 -9.999 -99.9 -99.99 -9.99
2019/06/24 08:18 PDT    4.33   4.83    3  114    4  62.4  74.5 1012.9 -9.9 -9.999 -99.9 -99.99 -9.99
2019/06/24 08:24 PDT    4.20   4.71    1   55    3  63.3  74.5 1012.9 -9.9 -9.999 -99.9 -99.99 -9.99
2019/06/24 08:30 PDT    4.07   4.58    2   80    3  63.3  74.5 1012.9 -9.9 -9.999 -99.9 -99.99 -9.99
2019/06/24 08:36 PDT    3.94   4.46    1   51    2  64.6  74.5 1013.0 -9.9 -9.999 -99.9 -99.99 -9.99
2019/06/24 08:42 PDT    3.81   4.34    4  308    5  63.1  74.5 1012.9 -9.9 -9.999 -99.9 -99.99 -9.99
2019/06/24 08:48 PDT    3.68   4.21    3  325    4  63.0  74.5 1013.0 -9.9 -9.999 -99.9 -99.99 -9.99
2019/06/24 08:54 PDT    3.55   4.08    3  342    5  62.8  74.5 1013.0 -9.9 -9.999 -99.9 -99.99 -9.99
2019/06/24 09:00 PDT    3.42   3.95    3  337    4  62.8  74.5 1013.0 -9.9 -9.999 -99.9 -99.99 -9.99
2019/06/24 09:06 PDT    3.29   3.83    3  322    4  63.0  74.5 1012.9 -9.9 -9.999 -99.9 -99.99 -9.99
2019/06/24 09:12 PDT    3.17   3.71    2  309    5  63.0  74.5 1013.0 -9.9 -9.999 -99.9 -99.99 -9.99
2019/06/24 09:18 PDT    3.04   3.60    3  320    5  63.0  74.5 1012.9 -9.9 -9.999 -99.9 -99.99 -9.99
2019/06/24 09:24 PDT    2.92   3.49    2  293    5  63.3  74.5 1012.9 -9.9 -9.999 -99.9 -99.99 -9.99
2019/06/24 09:30 PDT    2.80   3.38    1  273    5  63.3  74.5 1013.0 -9.9 -9.999 -99.9 -99.99 -9.99
2019/06/24 09:36 PDT    2.68   3.27    4  344    5  63.5  74.5 1013.0 -9.9 -9.999 -99.9 -99.99 -9.99
2019/06/24 09:42 PDT    2.56   3.17    3  355    5  63.5  74.5 1013.0 -9.9 -9.999 -99.9 -99.99 -9.99
2019/06/24 09:48 PDT    2.45   3.07    2   17    5  63.7  74.5 1012.9 -9.9 -9.999 -99.9 -99.99 -9.99
2019/06/24 09:54 PDT    2.34   2.96    2  279    5  64.2  74.5 1012.9 -9.9 -9.999 -99.9 -99.99 -9.99
2019/06/24 10:00 PDT    2.24   2.85    4  353    5  64.2  74.5 1012.9 -9.9 -9.999 -99.9 -99.99 -9.99
2019/06/24 10:06 PDT    2.13   2.74    6  355    9  63.9  74.5 1012.8 -9.9 -9.999 -99.9 -99.99 -9.99
2019/06/24 10:12 PDT    2.04   2.64    4   11    8  64.2  74.5 1012.8 -9.9 -9.999 -99.9 -99.99 -9.99
2019/06/24 10:18 PDT    1.94   2.52    6  348    8  64.6  74.5 1012.8 -9.9 -9.999 -99.9 -99.99 -9.99
2019/06/24 10:24 PDT    1.85   2.41    7  348   10  64.4  74.7 1012.9 -9.9 -9.999 -99.9 -99.99 -9.99
2019/06/24 10:30 PDT    1.77   2.30    6  355    9  64.6  74.7 1012.9 -9.9 -9.999 -99.9 -99.99 -9.99
2019/06/24 10:36 PDT    1.69   2.20    6  338    9  64.4  74.7 1012.8 -9.9 -9.999 -99.9 -99.99 -9.99
2019/06/24 10:42 PDT    1.61   2.11    7  346    9  64.6  74.7 1012.8 -9.9 -9.999 -99.9 -99.99 -9.99
2019/06/24 10:48 PDT    1.54   2.03    7  355    8  64.4  74.7 1012.8 -9.9 -9.999 -99.9 -99.99 -9.99
2019/06/24 10:54 PDT    1.47   1.96    7  347    9  64.4  74.7 1012.8 -9.9 -9.999 -99.9 -99.99 -9.99
2019/06/24 11:00 PDT    1.41   1.88    5  359    9  64.6  74.8 1012.8 -9.9 -9.999 -99.9 -99.99 -9.99
2019/06/24 11:06 PDT    1.35   1.83    6  358    8  64.4  74.8 1012.8 -9.9 -9.999 -99.9 -99.99 -9.99
2019/06/24 11:12 PDT    1.30   1.78    6  356   10  64.4  74.8 1012.9 -9.9 -9.999 -99.9 -99.99 -9.99
2019/06/24 11:18 PDT    1.25   1.73    5  359    7  64.8  74.8 1012.8 -9.9 -9.999 -99.9 -99.99 -9.99
2019/06/24 11:24 PDT    1.21   1.70    5  354    8  65.1  74.8 1012.8 -9.9 -9.999 -99.9 -99.99 -9.99
2019/06/24 11:30 PDT    1.18   1.68    5    0    7  65.5  75.0 1012.7 -9.9 -9.999 -99.9 -99.99 -9.99
2019/06/24 11:36 PDT    1.14   1.67    6  353    8  66.2  75.0 1012.8 -9.9 -9.999 -99.9 -99.99 -9.99
2019/06/24 11:42 PDT    1.12   1.66    6  351    8  66.2  75.0 1012.7 -9.9 -9.999 -99.9 -99.99 -9.99
2019/06/24 11:48 PDT    1.10   1.66    7  358   10  66.7  75.0 1012.7 -9.9 -9.999 -99.9 -99.99 -9.99
2019/06/24 11:54 PDT    1.08   1.67    7  343   10  66.7  75.2 1012.7 -9.9 -9.999 -99.9 -99.99 -9.99
2019/06/24 12:00 PDT    1.07   1.67    6  343    9  66.9  75.2 1012.7 -9.9 -9.999 -99.9 -99.99 -9.99
2019/06/24 12:06 PDT    1.07   1.68    7  347   10  67.3  75.2 1012.7 -9.9 -9.999 -99.9 -99.99 -9.99
2019/06/24 12:12 PDT    1.08   1.70    7  331    9  67.8  75.2 1012.6 -9.9 -9.999 -99.9 -99.99 -9.99
2019/06/24 12:18 PDT    1.08   1.73    7  353   10  68.0  75.2 1012.5 -9.9 -9.999 -99.9 -99.99 -9.99
2019/06/24 12:24 PDT    1.10   1.76    7  330   10  68.7  75.4 1012.5 -9.9 -9.999 -99.9 -99.99 -9.99
2019/06/24 12:30 PDT    1.12   1.80    8  343   10  68.7  75.4 1012.4 -9.9 -9.999 -99.9 -99.99 -9.99
2019/06/24 12:36 PDT    1.15   1.84    8  351   10  69.3  75.4 1012.4 -9.9 -9.999 -99.9 -99.99 -9.99
2019/06/24 12:42 PDT    1.19   1.88    8  332   10  69.1  75.4 1012.3 -9.9 -9.999 -99.9 -99.99 -9.99
2019/06/24 12:48 PDT    1.23   1.94    8  339   11  69.4  75.6 1012.3 -9.9 -9.999 -99.9 -99.99 -9.99
2019/06/24 12:54 PDT    1.28   2.00    8  338   10  69.8  75.4 1012.3 -9.9 -9.999 -99.9 -99.99 -9.99
2019/06/24 13:00 PDT    1.33   2.07    7  330   11  70.0  75.6 1012.3 -9.9 -9.999 -99.9 -99.99 -9.99
2019/06/24 13:06 PDT    1.39   2.14    7  331   10  70.0  75.6 1012.2 -9.9 -9.999 -99.9 -99.99 -9.99
2019/06/24 13:12 PDT    1.46   2.22    8  327   11  70.2  75.6 1012.2 -9.9 -9.999 -99.9 -99.99 -9.99
2019/06/24 13:18 PDT    1.53   2.30    8  337   11  70.0  75.6 1012.1 -9.9 -9.999 -99.9 -99.99 -9.99
2019/06/24 13:24 PDT    1.61   2.38    8  326   11  70.2  75.6 1012.1 -9.9 -9.999 -99.9 -99.99 -9.99
2019/06/24 13:30 PDT    1.70   2.46    8  334   11  70.2  75.7 1012.1 -9.9 -9.999 -99.9 -99.99 -9.99
2019/06/24 13:36 PDT    1.79   2.55    8  335   12  70.2  75.7 1012.0 -9.9 -9.999 -99.9 -99.99 -9.99
2019/06/24 13:42 PDT    1.89   2.64   10  335   12  70.3  75.7 1012.0 -9.9 -9.999 -99.9 -99.99 -9.99
2019/06/24 13:48 PDT    1.99   2.74    9  332   13  70.7  75.7 1011.9 -9.9 -9.999 -99.9 -99.99 -9.99
2019/06/24 13:54 PDT    2.10   2.84   10  344   13  70.7  75.9 1011.8 -9.9 -9.999 -99.9 -99.99 -9.99
2019/06/24 14:00 PDT    2.21   2.94   10  329   13  71.2  75.9 1011.8 -9.9 -9.999 -99.9 -99.99 -9.99
2019/06/24 14:06 PDT    2.32   3.04   11  334   13  70.7  75.9 1011.8 -9.9 -9.999 -99.9 -99.99 -9.99
2019/06/24 14:12 PDT    2.44   3.15   11  333   14  70.5  75.9 1011.8 -9.9 -9.999 -99.9 -99.99 -9.99
2019/06/24 14:18 PDT    2.57   3.26   11  345   13  69.8  76.1 1011.6 -9.9 -9.999 -99.9 -99.99 -9.99
2019/06/24 14:24 PDT    2.69   3.39   11  344   13  69.6  76.1 1011.6 -9.9 -9.999 -99.9 -99.99 -9.99
2019/06/24 14:30 PDT    2.82   3.51   11  332   13  70.2  76.1 1011.6 -9.9 -9.999 -99.9 -99.99 -9.99
2019/06/24 14:36 PDT    2.95   3.63   10  342   13  70.3  76.1 1011.5 -9.9 -9.999 -99.9 -99.99 -9.99
2019/06/24 14:42 PDT    3.09   3.75   11  339   13  70.5  76.1 1011.5 -9.9 -9.999 -99.9 -99.99 -9.99
2019/06/24 14:48 PDT    3.22   3.88   12  337   14  69.8  76.1 1011.4 -9.9 -9.999 -99.9 -99.99 -9.99
2019/06/24 14:54 PDT    3.36   4.00   12  340   14  70.2  76.1 1011.4 -9.9 -9.999 -99.9 -99.99 -9.99
2019/06/24 15:00 PDT    3.49   4.12   12  338   15  70.7  76.1 1011.3 -9.9 -9.999 -99.9 -99.99 -9.99
2019/06/24 15:06 PDT    3.63 -99.99 -999 -999 -999 -99.9 -99.9 -999.9 -9.9 -9.999 -99.9 -99.99 -9.99
2019/06/24 15:12 PDT    3.77 -99.99 -999 -999 -999 -99.9 -99.9 -999.9 -9.9 -9.999 -99.9 -99.99 -9.99
2019/06/24 15:18 PDT    3.91 -99.99 -999 -999 -999 -99.9 -99.9 -999.9 -9.9 -9.999 -99.9 -99.99 -9.99
2019/06/24 15:24 PDT    4.04 -99.99 -999 -999 -999 -99.9 -99.9 -999.9 -9.9 -9.999 -99.9 -99.99 -9.99
2019/06/24 15:30 PDT    4.18 -99.99 -999 -999 -999 -99.9 -99.9 -999.9 -9.9 -9.999 -99.9 -99.99 -9.99
2019/06/24 15:36 PDT    4.32 -99.99 -999 -999 -999 -99.9 -99.9 -999.9 -9.9 -9.999 -99.9 -99.99 -9.99
2019/06/24 15:42 PDT    4.45 -99.99 -999 -999 -999 -99.9 -99.9 -999.9 -9.9 -9.999 -99.9 -99.99 -9.99
2019/06/24 15:48 PDT    4.58 -99.99 -999 -999 -999 -99.9 -99.9 -999.9 -9.9 -9.999 -99.9 -99.99 -9.99
2019/06/24 15:54 PDT    4.72 -99.99 -999 -999 -999 -99.9 -99.9 -999.9 -9.9 -9.999 -99.9 -99.99 -9.99
2019/06/24 16:00 PDT    4.85 -99.99 -999 -999 -999 -99.9 -99.9 -999.9 -9.9 -9.999 -99.9 -99.99 -9.99
2019/06/24 16:06 PDT    4.97 -99.99 -999 -999 -999 -99.9 -99.9 -999.9 -9.9 -9.999 -99.9 -99.99 -9.99
2019/06/24 16:12 PDT    5.10 -99.99 -999 -999 -999 -99.9 -99.9 -999.9 -9.9 -9.999 -99.9 -99.99 -9.99
2019/06/24 16:18 PDT    5.22 -99.99 -999 -999 -999 -99.9 -99.9 -999.9 -9.9 -9.999 -99.9 -99.99 -9.99
2019/06/24 16:24 PDT    5.34 -99.99 -999 -999 -999 -99.9 -99.9 -999.9 -9.9 -9.999 -99.9 -99.99 -9.99
2019/06/24 16:30 PDT    5.46 -99.99 -999 -999 -999 -99.9 -99.9 -999.9 -9.9 -9.999 -99.9 -99.99 -9.99
2019/06/24 16:36 PDT    5.58 -99.99 -999 -999 -999 -99.9 -99.9 -999.9 -9.9 -9.999 -99.9 -99.99 -9.99
2019/06/24 16:42 PDT    5.69 -99.99 -999 -999 -999 -99.9 -99.9 -999.9 -9.9 -9.999 -99.9 -99.99 -9.99
2019/06/24 16:48 PDT    5.80 -99.99 -999 -999 -999 -99.9 -99.9 -999.9 -9.9 -9.999 -99.9 -99.99 -9.99
2019/06/24 16:54 PDT    5.91 -99.99 -999 -999 -999 -99.9 -99.9 -999.9 -9.9 -9.999 -99.9 -99.99 -9.99
2019/06/24 17:00 PDT    6.01 -99.99 -999 -999 -999 -99.9 -99.9 -999.9 -9.9 -9.999 -99.9 -99.99 -9.99
2019/06/24 17:06 PDT    6.11 -99.99 -999 -999 -999 -99.9 -99.9 -999.9 -9.9 -9.999 -99.9 -99.99 -9.99
2019/06/24 17:12 PDT    6.21 -99.99 -999 -999 -999 -99.9 -99.9 -999.9 -9.9 -9.999 -99.9 -99.99 -9.99
2019/06/24 17:18 PDT    6.30 -99.99 -999 -999 -999 -99.9 -99.9 -999.9 -9.9 -9.999 -99.9 -99.99 -9.99
2019/06/24 17:24 PDT    6.39 -99.99 -999 -999 -999 -99.9 -99.9 -999.9 -9.9 -9.999 -99.9 -99.99 -9.99
2019/06/24 17:30 PDT    6.48 -99.99 -999 -999 -999 -99.9 -99.9 -999.9 -9.9 -9.999 -99.9 -99.99 -9.99
2019/06/24 17:36 PDT    6.56 -99.99 -999 -999 -999 -99.9 -99.9 -999.9 -9.9 -9.999 -99.9 -99.99 -9.99
2019/06/24 17:42 PDT    6.64 -99.99 -999 -999 -999 -99.9 -99.9 -999.9 -9.9 -9.999 -99.9 -99.99 -9.99
2019/06/24 17:48 PDT    6.71 -99.99 -999 -999 -999 -99.9 -99.9 -999.9 -9.9 -9.999 -99.9 -99.99 -9.99
2019/06/24 17:54 PDT    6.78 -99.99 -999 -999 -999 -99.9 -99.9 -999.9 -9.9 -9.999 -99.9 -99.99 -9.99
2019/06/24 18:00 PDT    6.84 -99.99 -999 -999 -999 -99.9 -99.9 -999.9 -9.9 -9.999 -99.9 -99.99 -9.99
2019/06/24 18:06 PDT    6.90 -99.99 -999 -999 -999 -99.9 -99.9 -999.9 -9.9 -9.999 -99.9 -99.99 -9.99
2019/06/24 18:12 PDT    6.96 -99.99 -999 -999 -999 -99.9 -99.9 -999.9 -9.9 -9.999 -99.9 -99.99 -9.99
2019/06/24 18:18 PDT    7.01 -99.99 -999 -999 -999 -99.9 -99.9 -999.9 -9.9 -9.999 -99.9 -99.99 -9.99
2019/06/24 18:24 PDT    7.05 -99.99 -999 -999 -999 -99.9 -99.9 -999.9 -9.9 -9.999 -99.9 -99.99 -9.99
2019/06/24 18:30 PDT    7.09 -99.99 -999 -999 -999 -99.9 -99.9 -999.9 -9.9 -9.999 -99.9 -99.99 -9.99
2019/06/24 18:36 PDT    7.12 -99.99 -999 -999 -999 -99.9 -99.9 -999.9 -9.9 -9.999 -99.9 -99.99 -9.99
2019/06/24 18:42 PDT    7.15 -99.99 -999 -999 -999 -99.9 -99.9 -999.9 -9.9 -9.999 -99.9 -99.99 -9.99
2019/06/24 18:48 PDT    7.17 -99.99 -999 -999 -999 -99.9 -99.9 -999.9 -9.9 -9.999 -99.9 -99.99 -9.99
2019/06/24 18:54 PDT    7.18 -99.99 -999 -999 -999 -99.9 -99.9 -999.9 -9.9 -9.999 -99.9 -99.99 -9.99
2019/06/24 19:00 PDT    7.19 -99.99 -999 -999 -999 -99.9 -99.9 -999.9 -9.9 -9.999 -99.9 -99.99 -9.99
2019/06/24 19:06 PDT    7.19 -99.99 -999 -999 -999 -99.9 -99.9 -999.9 -9.9 -9.999 -99.9 -99.99 -9.99
2019/06/24 19:12 PDT    7.19 -99.99 -999 -999 -999 -99.9 -99.9 -999.9 -9.9 -9.999 -99.9 -99.99 -9.99
2019/06/24 19:18 PDT    7.18 -99.99 -999 -999 -999 -99.9 -99.9 -999.9 -9.9 -9.999 -99.9 -99.99 -9.99
2019/06/24 19:24 PDT    7.16 -99.99 -999 -999 -999 -99.9 -99.9 -999.9 -9.9 -9.999 -99.9 -99.99 -9.99
2019/06/24 19:30 PDT    7.14 -99.99 -999 -999 -999 -99.9 -99.9 -999.9 -9.9 -9.999 -99.9 -99.99 -9.99
2019/06/24 19:36 PDT    7.11 -99.99 -999 -999 -999 -99.9 -99.9 -999.9 -9.9 -9.999 -99.9 -99.99 -9.99
2019/06/24 19:42 PDT    7.08 -99.99 -999 -999 -999 -99.9 -99.9 -999.9 -9.9 -9.999 -99.9 -99.99 -9.99
2019/06/24 19:48 PDT    7.04 -99.99 -999 -999 -999 -99.9 -99.9 -999.9 -9.9 -9.999 -99.9 -99.99 -9.99
2019/06/24 19:54 PDT    6.99 -99.99 -999 -999 -999 -99.9 -99.9 -999.9 -9.9 -9.999 -99.9 -99.99 -9.99
2019/06/24 20:00 PDT    6.94 -99.99 -999 -999 -999 -99.9 -99.9 -999.9 -9.9 -9.999 -99.9 -99.99 -9.99
2019/06/24 20:06 PDT    6.89 -99.99 -999 -999 -999 -99.9 -99.9 -999.9 -9.9 -9.999 -99.9 -99.99 -9.99
2019/06/24 20:12 PDT    6.82 -99.99 -999 -999 -999 -99.9 -99.9 -999.9 -9.9 -9.999 -99.9 -99.99 -9.99
2019/06/24 20:18 PDT    6.75 -99.99 -999 -999 -999 -99.9 -99.9 -999.9 -9.9 -9.999 -99.9 -99.99 -9.99
2019/06/24 20:24 PDT    6.68 -99.99 -999 -999 -999 -99.9 -99.9 -999.9 -9.9 -9.999 -99.9 -99.99 -9.99
2019/06/24 20:30 PDT    6.60 -99.99 -999 -999 -999 -99.9 -99.9 -999.9 -9.9 -9.999 -99.9 -99.99 -9.99
2019/06/24 20:36 PDT    6.52 -99.99 -999 -999 -999 -99.9 -99.9 -999.9 -9.9 -9.999 -99.9 -99.99 -9.99
2019/06/24 20:42 PDT    6.44 -99.99 -999 -999 -999 -99.9 -99.9 -999.9 -9.9 -9.999 -99.9 -99.99 -9.99
2019/06/24 20:48 PDT    6.35 -99.99 -999 -999 -999 -99.9 -99.9 -999.9 -9.9 -9.999 -99.9 -99.99 -9.99
2019/06/24 20:54 PDT    6.25 -99.99 -999 -999 -999 -99.9 -99.9 -999.9 -9.9 -9.999 -99.9 -99.99 -9.99
2019/06/24 21:00 PDT    6.16 -99.99 -999 -999 -999 -99.9 -99.9 -999.9 -9.9 -9.999 -99.9 -99.99 -9.99
2019/06/24 21:06 PDT    6.06 -99.99 -999 -999 -999 -99.9 -99.9 -999.9 -9.9 -9.999 -99.9 -99.99 -9.99
2019/06/24 21:12 PDT    5.96 -99.99 -999 -999 -999 -99.9 -99.9 -999.9 -9.9 -9.999 -99.9 -99.99 -9.99

Revised: 08/08/2018
NOAA / National Ocean Service
Web site owner: Center for Operational Oceanographic Products and Services